Terminal Aerodrome Forecast
Issued by NWS

Home | Current Version | Previous Version | Text Only | Print | Product List | Glossary On
Versions: 1 2 3 4 5 6 7 8 9 10 11 12
000
FTUS46 KSEW 231734
TAFBLI
TAF
KBLI 231734Z 2318/2418 VRB03KT P6SM SCT030 BKN090
     FM232000 VRB03KT P6SM BKN080
     FM240500 00000KT P6SM SKC
     FM241100 00000KT 5SM BR SKC
      TEMPO 2412/2416 3/4SM BR VV002=

USA.gov is the U.S. government's official web portal to all federal, state and local government web resources and services.